Houston's Hourly Summary for Monday, July 9, 2018
Hour Temp
(f)
RH
(%)
Solar Rad.
(MJ/m2)
Rainfall
(in)
Wind
(mph)
7/9/2018 12:00 AM 76 87 0 0 0
7/9/2018 1:00 AM 75 91 0 0 0
7/9/2018 2:00 AM 74 93 0 0.01 0
7/9/2018 3:00 AM 74 94 0 0 0
7/9/2018 4:00 AM 74 95 0 0 0
7/9/2018 5:00 AM 74 95 0 0 0
7/9/2018 6:00 AM 74 95 0 0 0
7/9/2018 7:00 AM 74 96 0 0 0
7/9/2018 8:00 AM 75 96 0.17 0 0
7/9/2018 9:00 AM 78 83 0.54 0 0
7/9/2018 10:00 AM 81 78 0.78 0 0
7/9/2018 11:00 AM 83 73 0.72 0 0
7/9/2018 12:00 PM 86 58 2.47 0 0
7/9/2018 1:00 PM 88 50 2.68 0 1.12
7/9/2018 2:00 PM 79 59 0.28 0.01 3.3
7/9/2018 3:00 PM 72 88 0.45 0 0.17
7/9/2018 4:00 PM 78 67 2.05 0 0.37
7/9/2018 5:00 PM 83 63 1.87 0 0.65
7/9/2018 6:00 PM 86 59 1.8 0 1.55
7/9/2018 7:00 PM 87 52 0.93 0.01 1.39
7/9/2018 8:00 PM 84 55 0.27 0 0.85
7/9/2018 9:00 PM 83 67 0.01 0 1.73
7/9/2018 10:00 PM 81 70 0 0.01 0
7/9/2018 11:00 PM 78 76 0 0 0
Data Summary 79 76 15.02 0.04 0.46